createdAt,value
2023-01-23T00:01:07.803Z,19.70
2023-01-23T00:03:36.675Z,18.30
2023-01-23T00:06:05.786Z,18.27
2023-01-23T00:08:35.380Z,18.77
2023-01-23T00:11:05.504Z,17.47
2023-01-23T00:13:33.115Z,19.27
2023-01-23T00:16:04.306Z,19.13
2023-01-23T00:18:31.828Z,20.10
2023-01-23T00:21:04.435Z,18.43
2023-01-23T00:23:34.030Z,18.47
2023-01-23T00:26:05.133Z,17.97
2023-01-23T00:28:33.862Z,18.73
2023-01-23T00:31:05.457Z,17.70
2023-01-23T00:33:33.283Z,18.73
2023-01-23T00:36:02.508Z,18.90
2023-01-23T00:38:30.152Z,17.60
2023-01-23T00:40:57.686Z,19.07
2023-01-23T00:43:25.412Z,18.50
2023-01-23T00:45:53.079Z,18.00
2023-01-23T00:48:20.603Z,19.50
2023-01-23T00:50:48.783Z,17.90
2023-01-23T00:53:17.565Z,16.97
2023-01-23T00:55:45.057Z,18.07
2023-01-23T00:58:12.690Z,16.03
2023-01-23T01:00:40.269Z,17.07
2023-01-23T01:03:08.126Z,17.00
2023-01-23T01:05:36.007Z,17.20
2023-01-23T01:08:03.439Z,18.33
2023-01-23T01:10:33.008Z,18.43
2023-01-23T01:13:03.755Z,18.63
2023-01-23T01:15:31.240Z,17.57
2023-01-23T01:17:59.014Z,18.60
2023-01-23T01:20:27.438Z,18.00
2023-01-23T01:22:55.023Z,19.03
2023-01-23T01:25:22.534Z,18.77
2023-01-23T01:27:51.348Z,17.77
2023-01-23T01:30:19.548Z,17.17
2023-01-23T01:32:47.129Z,17.23
2023-01-23T01:35:14.694Z,18.03
2023-01-23T01:37:42.492Z,17.57
2023-01-23T01:40:13.362Z,18.40
2023-01-23T01:42:41.189Z,17.67
2023-01-23T01:45:23.605Z,17.87
2023-01-23T01:47:52.402Z,17.13
2023-01-23T01:50:20.377Z,16.20
2023-01-23T01:52:48.035Z,17.13
2023-01-23T01:55:15.597Z,15.60
2023-01-23T01:57:45.131Z,16.23
2023-01-23T02:00:13.643Z,15.90
2023-01-23T02:02:44.939Z,14.67
2023-01-23T02:05:16.092Z,16.40
2023-01-23T02:07:45.496Z,17.60
2023-01-23T02:10:13.725Z,16.80
2023-01-23T02:12:41.299Z,17.13
2023-01-23T02:15:09.530Z,17.00
2023-01-23T02:17:38.158Z,17.10
2023-01-23T02:20:11.542Z,17.13
2023-01-23T02:22:43.372Z,17.93
2023-01-23T02:25:17.640Z,18.37
2023-01-23T02:27:46.430Z,17.97
2023-01-23T02:30:15.856Z,18.20
2023-01-23T02:32:43.361Z,17.33
2023-01-23T02:35:12.379Z,17.63
2023-01-23T02:37:41.632Z,18.23
2023-01-23T02:40:09.993Z,17.93
2023-01-23T02:42:39.001Z,17.13
2023-01-23T02:45:08.386Z,18.43
2023-01-23T02:47:35.841Z,16.70
2023-01-23T02:50:03.311Z,17.73
2023-01-23T02:52:31.963Z,17.00
2023-01-23T02:54:59.424Z,17.83
2023-01-23T02:57:26.825Z,17.80
2023-01-23T03:00:11.966Z,17.83
2023-01-23T03:02:42.101Z,17.67
2023-01-23T03:05:09.703Z,18.07
2023-01-23T03:07:37.168Z,18.10
2023-01-23T03:10:04.770Z,17.93
2023-01-23T03:12:32.295Z,19.17
2023-01-23T03:14:59.751Z,18.00
2023-01-23T03:17:28.791Z,19.13
2023-01-23T03:19:57.800Z,19.97
2023-01-23T03:22:26.444Z,19.00
2023-01-23T03:24:53.876Z,18.60
2023-01-23T03:27:21.389Z,18.10
2023-01-23T03:30:06.231Z,19.30
2023-01-23T03:32:33.670Z,18.90
2023-01-23T03:35:02.501Z,18.37
2023-01-23T03:37:30.229Z,18.97
2023-01-23T03:40:15.012Z,18.30
2023-01-23T03:42:42.433Z,18.33
2023-01-23T03:45:10.313Z,18.33
2023-01-23T03:47:37.763Z,18.23
2023-01-23T03:50:07.742Z,18.50
2023-01-23T03:52:35.196Z,18.40
2023-01-23T03:55:02.627Z,18.13
2023-01-23T03:57:30.179Z,17.97
2023-01-23T03:59:57.620Z,18.67
2023-01-23T04:02:25.198Z,18.23
2023-01-23T04:04:52.765Z,17.70
2023-01-23T04:07:21.571Z,17.30
2023-01-23T04:09:49.020Z,16.90
2023-01-23T04:12:16.523Z,18.60
2023-01-23T04:14:44.020Z,19.70
2023-01-23T04:17:11.918Z,19.40
2023-01-23T04:19:39.367Z,17.33
2023-01-23T04:22:06.847Z,17.40
2023-01-23T04:24:35.689Z,17.70
2023-01-23T04:27:03.105Z,18.83
2023-01-23T04:29:30.570Z,18.17
2023-01-23T04:31:57.990Z,18.07
2023-01-23T04:34:25.398Z,17.97
2023-01-23T04:36:52.876Z,17.57
2023-01-23T04:39:20.332Z,17.73
2023-01-23T04:41:49.129Z,19.03
2023-01-23T04:44:22.152Z,17.80
2023-01-23T04:46:50.193Z,17.33
2023-01-23T04:49:18.693Z,17.73
2023-01-23T04:51:47.947Z,16.27
2023-01-23T04:54:15.611Z,17.30
2023-01-23T04:56:43.154Z,17.97
2023-01-23T04:59:11.963Z,18.73
2023-01-23T05:01:39.726Z,18.37
2023-01-23T05:04:07.277Z,18.00
2023-01-23T05:06:34.805Z,16.37
2023-01-23T05:09:02.208Z,17.80
2023-01-23T05:11:29.689Z,16.17
2023-01-23T05:13:57.160Z,18.00
2023-01-23T05:16:25.986Z,17.47
2023-01-23T05:18:53.422Z,17.97
2023-01-23T05:21:20.884Z,18.47
2023-01-23T05:23:48.323Z,16.77
2023-01-23T05:26:15.770Z,17.40
2023-01-23T05:28:43.323Z,16.53
2023-01-23T05:31:10.956Z,18.33
2023-01-23T05:33:40.381Z,17.43
2023-01-23T05:36:10.814Z,17.53
2023-01-23T05:38:38.624Z,16.57
2023-01-23T05:41:06.131Z,18.90
2023-01-23T05:43:33.580Z,17.40
2023-01-23T05:46:01.351Z,17.77
2023-01-23T05:48:29.139Z,17.77
2023-01-23T05:50:57.931Z,17.23
2023-01-23T05:53:25.528Z,16.57
2023-01-23T05:55:52.924Z,16.60
2023-01-23T05:58:20.400Z,18.53
2023-01-23T06:00:47.905Z,17.20
2023-01-23T06:03:15.422Z,17.43
2023-01-23T06:05:42.871Z,16.87
2023-01-23T06:08:11.747Z,17.03
2023-01-23T06:10:39.392Z,18.23
2023-01-23T06:13:16.135Z,17.57
2023-01-23T06:15:43.663Z,18.10
2023-01-23T06:18:14.164Z,18.43
2023-01-23T06:20:41.684Z,18.17
2023-01-23T06:23:09.178Z,17.13
2023-01-23T06:25:38.521Z,16.47
2023-01-23T06:28:06.121Z,18.40
2023-01-23T06:30:34.103Z,18.90
2023-01-23T06:33:01.683Z,19.57
2023-01-23T06:35:29.211Z,24.63
2023-01-23T06:37:56.673Z,23.50
2023-01-23T06:40:24.942Z,21.37
2023-01-23T06:42:56.664Z,18.10
2023-01-23T06:45:24.175Z,18.97
2023-01-23T06:47:52.522Z,20.37
2023-01-23T06:50:20.509Z,19.10
2023-01-23T06:52:59.271Z,17.90
2023-01-23T06:55:26.781Z,22.17
2023-01-23T06:57:54.367Z,31.53
2023-01-23T07:00:23.913Z,34.23
2023-01-23T07:02:52.515Z,26.77
2023-01-23T07:05:20.054Z,24.13
2023-01-23T07:07:47.638Z,21.50
2023-01-23T07:10:15.204Z,18.97
2023-01-23T07:12:45.526Z,18.90
2023-01-23T07:15:13.004Z,18.40
2023-01-23T07:17:44.815Z,17.00
2023-01-23T07:20:12.627Z,16.73
2023-01-23T07:22:40.407Z,17.53
2023-01-23T07:25:08.547Z,18.47
2023-01-23T07:27:36.070Z,18.20
2023-01-23T07:30:03.706Z,17.13
2023-01-23T07:32:31.275Z,17.20
2023-01-23T07:35:00.474Z,17.50
2023-01-23T07:37:28.136Z,18.63
2023-01-23T07:39:55.691Z,18.03
2023-01-23T07:42:23.651Z,18.00
2023-01-23T07:44:51.087Z,18.20
2023-01-23T07:47:18.648Z,23.83
2023-01-23T07:49:46.698Z,28.50
2023-01-23T07:52:15.604Z,21.00
2023-01-23T07:54:43.093Z,18.60
2023-01-23T07:57:10.977Z,18.03
2023-01-23T07:59:38.546Z,23.43
2023-01-23T08:02:06.045Z,20.53
2023-01-23T08:04:36.349Z,20.80
2023-01-23T08:07:03.851Z,19.10
2023-01-23T08:09:32.646Z,18.97
2023-01-23T08:12:00.324Z,17.30
2023-01-23T08:14:28.051Z,19.03
2023-01-23T08:16:55.760Z,18.50
2023-01-23T08:19:25.334Z,18.50
2023-01-23T08:21:52.921Z,18.03
2023-01-23T08:24:20.403Z,18.43
2023-01-23T08:26:49.288Z,16.47
2023-01-23T08:29:16.724Z,14.10
2023-01-23T08:31:44.315Z,13.33
2023-01-23T08:34:11.825Z,13.00
2023-01-23T08:36:39.298Z,13.63
2023-01-23T08:39:07.842Z,13.87
2023-01-23T08:41:35.361Z,12.17
2023-01-23T08:44:04.424Z,12.93
2023-01-23T08:46:31.906Z,11.40
2023-01-23T08:48:59.469Z,12.43
2023-01-23T08:51:29.928Z,11.53
2023-01-23T08:53:57.649Z,11.67
2023-01-23T08:56:25.660Z,10.67
2023-01-23T08:58:53.261Z,9.77
2023-01-23T09:01:23.128Z,9.87
2023-01-23T09:03:50.646Z,8.77
2023-01-23T09:06:18.769Z,8.70
2023-01-23T09:08:46.552Z,9.93
2023-01-23T09:11:14.703Z,9.50
2023-01-23T09:13:42.524Z,8.73
2023-01-23T09:16:10.455Z,7.63
2023-01-23T09:18:39.524Z,8.30
2023-01-23T09:21:11.465Z,8.07
2023-01-23T09:23:39.091Z,8.20
2023-01-23T09:26:08.021Z,9.07
2023-01-23T09:28:36.475Z,9.07
2023-01-23T09:31:05.370Z,7.93
2023-01-23T09:33:33.395Z,8.27
2023-01-23T09:36:02.324Z,8.00
2023-01-23T09:38:29.880Z,8.20
2023-01-23T09:40:58.405Z,8.00
2023-01-23T09:43:36.335Z,8.50
2023-01-23T09:46:15.069Z,9.17
2023-01-23T09:48:44.813Z,7.90
2023-01-23T09:51:18.166Z,8.87
2023-01-23T09:53:45.858Z,8.67
2023-01-23T09:56:18.709Z,9.27
2023-01-23T09:58:57.154Z,8.57
2023-01-23T10:01:25.215Z,8.40
2023-01-23T10:03:52.806Z,10.30
2023-01-23T10:06:23.597Z,9.30
2023-01-23T10:09:05.959Z,9.30
2023-01-23T10:11:39.031Z,9.17
2023-01-23T10:14:15.926Z,8.93
2023-01-23T10:16:51.462Z,8.77
2023-01-23T10:19:27.031Z,8.40
2023-01-23T10:22:01.694Z,8.77
2023-01-23T10:24:40.762Z,8.70
2023-01-23T10:27:16.898Z,8.90
2023-01-23T10:29:45.940Z,8.70
2023-01-23T10:32:19.035Z,9.27
2023-01-23T10:34:50.401Z,9.93
2023-01-23T10:37:23.308Z,9.07
2023-01-23T10:39:53.868Z,9.77
2023-01-23T10:42:23.822Z,11.70
2023-01-23T10:44:54.547Z,9.70
2023-01-23T10:47:28.008Z,11.23
2023-01-23T10:49:58.226Z,9.77
2023-01-23T10:52:37.380Z,10.83
2023-01-23T10:55:26.902Z,10.33
2023-01-23T10:57:55.377Z,12.50
2023-01-23T11:00:26.604Z,10.33
2023-01-23T11:02:54.612Z,12.07
2023-01-23T11:05:50.673Z,14.23
2023-01-23T11:08:32.521Z,10.27
2023-01-23T11:11:19.070Z,12.03
2023-01-23T11:13:47.720Z,12.17
2023-01-23T11:16:18.423Z,12.13
2023-01-23T11:18:48.835Z,12.47
2023-01-23T11:21:22.872Z,10.77
2023-01-23T11:24:08.000Z,15.97
2023-01-23T11:26:36.676Z,13.90
2023-01-23T11:29:19.817Z,15.67
2023-01-23T11:31:47.807Z,18.70
2023-01-23T11:34:18.525Z,14.03
2023-01-23T11:36:49.442Z,11.23
2023-01-23T11:39:23.159Z,10.90
2023-01-23T11:41:50.627Z,10.37
2023-01-23T11:44:21.158Z,13.90
2023-01-23T11:47:05.034Z,13.20
2023-01-23T11:49:44.340Z,10.07
2023-01-23T11:52:19.617Z,10.30
2023-01-23T11:54:57.305Z,9.93
2023-01-23T11:57:30.515Z,9.93
2023-01-23T12:00:06.721Z,9.87
2023-01-23T12:02:53.027Z,11.07
2023-01-23T12:05:27.650Z,10.73
2023-01-23T12:08:00.932Z,9.67
2023-01-23T12:10:33.606Z,9.33
2023-01-23T12:13:07.244Z,9.47
2023-01-23T12:15:39.127Z,10.37
2023-01-23T12:18:13.242Z,10.27
2023-01-23T12:20:47.540Z,9.67
2023-01-23T12:23:31.754Z,11.07
2023-01-23T12:26:05.175Z,9.77
2023-01-23T12:28:52.393Z,9.27
2023-01-23T12:31:28.650Z,9.27
2023-01-23T12:34:05.178Z,8.95
2023-01-23T12:36:59.487Z,8.70
2023-01-23T12:39:40.221Z,8.18
2023-01-23T12:42:10.727Z,9.53
2023-01-23T12:44:40.306Z,9.67
2023-01-23T12:47:10.206Z,8.57
2023-01-23T12:49:39.970Z,8.17
2023-01-23T12:52:10.171Z,8.37
2023-01-23T12:54:41.979Z,8.50
2023-01-23T12:57:11.597Z,8.47
2023-01-23T12:59:48.460Z,8.63
2023-01-23T13:02:18.583Z,7.93
2023-01-23T13:04:54.254Z,8.47
2023-01-23T13:07:35.488Z,8.30
2023-01-23T13:10:17.964Z,7.85
2023-01-23T13:12:46.799Z,7.75
2023-01-23T13:15:39.658Z,8.57
2023-01-23T13:18:18.805Z,7.22
2023-01-23T13:21:13.594Z,8.18
2023-01-23T13:23:41.053Z,7.75
2023-01-23T13:26:35.660Z,7.57
2023-01-23T13:29:07.616Z,7.15
2023-01-23T13:31:40.183Z,7.88
2023-01-23T13:34:22.800Z,8.15
2023-01-23T13:36:50.621Z,7.50
2023-01-23T13:39:26.849Z,7.05
2023-01-23T13:42:09.199Z,7.82
2023-01-23T13:44:42.012Z,8.63
2023-01-23T14:24:20.863Z,7.57
2023-01-23T14:26:50.049Z,7.35
2023-01-23T14:29:22.674Z,7.33
2023-01-23T14:31:51.195Z,8.20
2023-01-23T14:34:21.213Z,7.83
2023-01-23T14:36:51.025Z,7.90
2023-01-23T14:39:20.146Z,7.97
2023-01-23T14:41:48.509Z,9.23
2023-01-23T14:44:20.300Z,8.20
2023-01-23T14:46:47.870Z,8.17
2023-01-23T14:49:15.619Z,8.50
2023-01-23T14:51:54.661Z,8.60
2023-01-23T14:54:23.267Z,8.80
2023-01-23T14:56:52.029Z,9.10
2023-01-23T14:59:22.112Z,8.53
2023-01-23T15:01:54.912Z,8.57
2023-01-23T15:04:23.451Z,7.87
2023-01-23T15:06:53.920Z,8.67
2023-01-23T15:09:25.512Z,8.50
2023-01-23T15:11:52.968Z,9.13
2023-01-23T15:14:28.564Z,9.60
2023-01-23T15:17:06.221Z,9.03
2023-01-23T15:19:36.043Z,8.50
2023-01-23T15:22:09.212Z,8.93
2023-01-23T15:24:36.688Z,9.90
2023-01-23T15:27:22.505Z,9.33
2023-01-23T15:29:50.262Z,10.37
2023-01-23T15:32:20.938Z,9.57
2023-01-23T15:34:53.310Z,9.33
2023-01-23T15:37:23.734Z,9.53
2023-01-23T15:39:52.074Z,9.27
2023-01-23T15:42:37.155Z,10.77
2023-01-23T15:45:07.522Z,10.23
2023-01-23T15:47:35.952Z,10.50
2023-01-23T15:50:03.556Z,9.97
2023-01-23T15:52:45.789Z,9.80
2023-01-23T15:55:14.239Z,9.73
2023-01-23T15:57:43.199Z,9.43
2023-01-23T16:00:14.746Z,9.97
2023-01-23T16:02:55.150Z,9.73
2023-01-23T16:05:24.088Z,10.00
2023-01-23T16:07:53.434Z,9.67
2023-01-23T16:10:23.024Z,10.67
2023-01-23T16:12:51.578Z,11.27
2023-01-23T16:15:20.222Z,10.37
2023-01-23T16:17:48.730Z,11.13
2023-01-23T16:20:16.591Z,10.40
2023-01-23T16:22:44.785Z,9.70
2023-01-23T16:25:18.732Z,10.37
2023-01-23T16:27:46.247Z,10.33
2023-01-23T16:30:17.031Z,9.70
2023-01-23T16:32:44.685Z,10.43
2023-01-23T16:35:12.624Z,11.03
2023-01-23T16:37:40.986Z,9.00
2023-01-23T16:40:15.854Z,10.07
2023-01-23T16:42:45.112Z,11.00
2023-01-23T16:45:16.193Z,9.47
2023-01-23T16:47:43.720Z,9.97
2023-01-23T16:50:13.226Z,10.07
2023-01-23T16:52:41.011Z,10.93
2023-01-23T16:55:17.295Z,24.37
2023-01-23T16:57:46.339Z,16.13
2023-01-23T17:00:19.052Z,12.50
2023-01-23T17:02:51.731Z,10.50
2023-01-23T17:05:19.782Z,11.63
2023-01-23T17:07:49.138Z,12.53
2023-01-23T17:10:16.812Z,11.90
2023-01-23T17:12:45.566Z,10.40
2023-01-23T17:15:21.281Z,11.23
2023-01-23T17:17:51.323Z,10.27
2023-01-23T17:20:19.363Z,11.43
2023-01-23T17:22:47.113Z,10.37
2023-01-23T17:25:15.502Z,9.97
2023-01-23T17:27:46.166Z,11.33
2023-01-23T17:30:15.613Z,10.50
2023-01-23T17:32:46.521Z,11.20
2023-01-23T17:35:19.414Z,11.43
2023-01-23T17:37:47.191Z,10.80
2023-01-23T17:40:17.870Z,10.97
2023-01-23T17:42:45.385Z,12.37
2023-01-23T17:45:25.492Z,11.13
2023-01-23T17:47:55.333Z,11.47
2023-01-23T17:50:23.748Z,11.67
2023-01-23T17:52:51.927Z,12.07
2023-01-23T17:55:20.694Z,11.93
2023-01-23T17:57:49.035Z,11.07
2023-01-23T18:00:18.598Z,10.77
2023-01-23T18:02:46.645Z,10.43
2023-01-23T18:05:16.089Z,10.60
2023-01-23T18:07:53.328Z,11.73
2023-01-23T18:10:22.277Z,12.23
2023-01-23T18:12:52.540Z,11.30
2023-01-23T18:15:22.120Z,10.63
2023-01-23T18:17:54.137Z,11.03
2023-01-23T18:20:23.760Z,11.40
2023-01-23T18:22:53.283Z,10.03
2023-01-23T18:25:24.073Z,10.33
2023-01-23T18:27:53.906Z,10.40
2023-01-23T18:30:27.935Z,10.70
2023-01-23T18:33:01.316Z,10.70
2023-01-23T18:35:37.220Z,10.95
2023-01-23T18:38:10.646Z,10.13
2023-01-23T18:40:43.154Z,11.13
2023-01-23T18:43:22.449Z,9.77
2023-01-23T18:45:50.171Z,10.93
2023-01-23T18:48:25.044Z,9.77
2023-01-23T18:51:00.190Z,10.57
2023-01-23T18:53:34.198Z,11.03
2023-01-23T18:56:09.111Z,10.80
2023-01-23T18:58:46.130Z,10.07
2023-01-23T19:01:18.639Z,10.03
2023-01-23T19:03:49.673Z,10.83
2023-01-23T19:06:20.573Z,11.47
2023-01-23T19:08:48.603Z,10.30
2023-01-23T19:11:22.181Z,10.53
2023-01-23T19:13:55.405Z,11.17
2023-01-23T19:16:30.378Z,10.90
2023-01-23T19:19:14.649Z,10.53
2023-01-23T19:21:44.513Z,10.03
2023-01-23T19:24:12.578Z,11.13
2023-01-23T19:26:41.327Z,11.87
2023-01-23T19:29:20.921Z,12.30
2023-01-23T19:32:04.145Z,11.20
2023-01-23T19:34:35.850Z,12.27
2023-01-23T19:37:05.565Z,10.75
2023-01-23T19:39:38.477Z,12.60
2023-01-23T19:42:06.283Z,10.33
2023-01-23T19:44:34.031Z,12.23
2023-01-23T19:47:03.409Z,12.20
2023-01-23T19:49:33.533Z,13.23
2023-01-23T19:52:01.964Z,12.67
2023-01-23T19:54:30.985Z,12.83
2023-01-23T19:56:58.567Z,11.17
2023-01-23T19:59:27.334Z,10.27
2023-01-23T20:01:57.170Z,10.10
2023-01-23T20:04:25.014Z,10.93
2023-01-23T20:06:52.740Z,9.77
2023-01-23T20:09:22.693Z,10.87
2023-01-23T20:11:56.221Z,11.00
2023-01-23T20:14:25.125Z,10.20
2023-01-23T20:16:54.234Z,9.50
2023-01-23T20:19:22.001Z,9.83
2023-01-23T20:21:49.514Z,9.53
2023-01-23T20:24:17.552Z,9.90
2023-01-23T20:26:46.386Z,9.87
2023-01-23T20:29:15.788Z,10.27
2023-01-23T20:31:43.315Z,9.93
2023-01-23T20:34:11.328Z,9.83
2023-01-23T20:36:38.912Z,10.67
2023-01-23T20:39:06.609Z,10.23
2023-01-23T20:41:34.421Z,10.97
2023-01-23T20:44:04.421Z,9.90
2023-01-23T20:46:34.508Z,12.40
2023-01-23T20:49:02.698Z,13.40
2023-01-23T20:51:31.321Z,10.60
2023-01-23T20:54:02.431Z,10.70
2023-01-23T20:56:30.133Z,11.60
2023-01-23T20:59:15.382Z,12.77
2023-01-23T21:02:04.313Z,12.60
2023-01-23T21:04:32.672Z,12.60
2023-01-23T21:07:02.190Z,12.32
2023-01-23T21:09:30.267Z,13.33
2023-01-23T21:11:58.120Z,12.13
2023-01-23T21:14:25.923Z,11.10
2023-01-23T21:16:58.499Z,12.03
2023-01-23T21:19:33.758Z,11.73
2023-01-23T21:22:06.067Z,12.83
2023-01-23T21:24:36.976Z,12.17
2023-01-23T21:27:08.086Z,12.97
2023-01-23T21:29:36.279Z,10.93
2023-01-23T21:32:05.160Z,12.53
2023-01-23T21:34:33.217Z,12.20
2023-01-23T21:37:03.644Z,11.77
2023-01-23T21:39:31.531Z,12.93
2023-01-23T21:41:59.082Z,11.67
2023-01-23T21:44:26.739Z,10.70
2023-01-23T21:46:54.246Z,10.70
2023-01-23T21:49:23.100Z,10.73
2023-01-23T21:51:50.629Z,10.20
2023-01-23T21:54:18.281Z,10.10
2023-01-23T21:56:45.797Z,11.77
2023-01-23T21:59:40.241Z,11.03
2023-01-23T22:02:05.002Z,11.10
2023-01-23T22:04:34.044Z,11.63
2023-01-23T22:07:01.780Z,12.47
2023-01-23T22:09:29.518Z,12.47
2023-01-23T22:11:57.366Z,13.37
2023-01-23T22:14:24.999Z,13.83
2023-01-23T22:16:52.853Z,12.90
2023-01-23T22:19:24.735Z,13.30
2023-01-23T22:21:56.550Z,10.80
2023-01-23T22:24:24.098Z,10.77
2023-01-23T22:26:51.656Z,10.27
2023-01-23T22:29:19.139Z,9.77
2023-01-23T22:31:46.825Z,10.57
2023-01-23T22:34:14.459Z,10.93
2023-01-23T22:36:42.318Z,10.57
2023-01-23T22:39:12.638Z,11.67
2023-01-23T22:41:40.308Z,11.53
2023-01-23T22:44:07.898Z,10.73
2023-01-23T22:46:35.497Z,10.47
2023-01-23T22:49:03.082Z,10.93
2023-01-23T22:51:30.819Z,9.33
2023-01-23T22:53:58.975Z,10.70
2023-01-23T22:56:28.595Z,10.13
2023-01-23T22:58:56.455Z,10.93
2023-01-23T23:01:24.924Z,10.27
2023-01-23T23:03:52.607Z,10.87
2023-01-23T23:06:21.130Z,10.97
2023-01-23T23:08:48.963Z,11.23
2023-01-23T23:11:17.675Z,10.73
2023-01-23T23:13:46.985Z,11.30
2023-01-23T23:16:17.703Z,10.80
2023-01-23T23:18:45.715Z,11.17
2023-01-23T23:21:15.382Z,10.30
2023-01-23T23:23:42.939Z,10.83
2023-01-23T23:26:11.189Z,10.30
2023-01-23T23:28:39.131Z,10.87
2023-01-23T23:31:08.766Z,10.50
2023-01-23T23:33:36.459Z,11.03
2023-01-23T23:36:04.189Z,10.13
2023-01-23T23:38:31.651Z,10.50
2023-01-23T23:41:00.010Z,10.03
2023-01-23T23:43:27.955Z,9.97
2023-01-23T23:45:58.535Z,9.93
2023-01-23T23:48:28.185Z,9.90
2023-01-23T23:50:56.184Z,9.37
2023-01-23T23:53:26.690Z,9.80
2023-01-23T23:55:54.181Z,10.00
2023-01-23T23:58:26.643Z,10.77
